sensor_id;sensor_type;location;lat;lon;timestamp;temperature;humidity
16128;DHT22;8168;49.036;7.690;2022-12-18T00:00:28;-8.70;99.90
16128;DHT22;8168;49.036;7.690;2022-12-18T00:15:34;-8.80;99.90
16128;DHT22;8168;49.036;7.690;2022-12-18T00:20:38;-8.90;99.90
16128;DHT22;8168;49.036;7.690;2022-12-18T00:23:09;-8.90;99.90
16128;DHT22;8168;49.036;7.690;2022-12-18T00:50:50;-8.90;99.90
16128;DHT22;8168;49.036;7.690;2022-12-18T00:53:21;-8.90;99.90
16128;DHT22;8168;49.036;7.690;2022-12-18T01:21:08;-8.80;99.90
16128;DHT22;8168;49.036;7.690;2022-12-18T01:26:15;-8.80;99.90
16128;DHT22;8168;49.036;7.690;2022-12-18T01:28:46;-8.80;99.90
16128;DHT22;8168;49.036;7.690;2022-12-18T01:31:23;-8.80;99.90
16128;DHT22;8168;49.036;7.690;2022-12-18T01:33:55;-8.80;99.90
16128;DHT22;8168;49.036;7.690;2022-12-18T01:36:28;-8.90;99.90
16128;DHT22;8168;49.036;7.690;2022-12-18T01:39:00;-8.90;99.90
16128;DHT22;8168;49.036;7.690;2022-12-18T01:41:33;-8.90;99.90
16128;DHT22;8168;49.036;7.690;2022-12-18T01:47:57;-8.90;99.90
16128;DHT22;8168;49.036;7.690;2022-12-18T01:50:40;-8.90;99.90
16128;DHT22;8168;49.036;7.690;2022-12-18T01:53:15;-8.90;99.90
16128;DHT22;8168;49.036;7.690;2022-12-18T01:55:56;-8.90;99.90
16128;DHT22;8168;49.036;7.690;2022-12-18T01:58:39;-8.90;99.90
16128;DHT22;8168;49.036;7.690;2022-12-18T02:01:11;-9.00;99.90
16128;DHT22;8168;49.036;7.690;2022-12-18T02:03:43;-9.00;99.90
16128;DHT22;8168;49.036;7.690;2022-12-18T02:06:27;-9.00;99.90
16128;DHT22;8168;49.036;7.690;2022-12-18T02:09:20;-9.00;99.90
16128;DHT22;8168;49.036;7.690;2022-12-18T02:17:52;-9.10;99.90
16128;DHT22;8168;49.036;7.690;2022-12-18T02:20:38;-9.10;99.90
16128;DHT22;8168;49.036;7.690;2022-12-18T02:26:07;-9.10;99.90
16128;DHT22;8168;49.036;7.690;2022-12-18T02:28:46;-9.10;99.90
16128;DHT22;8168;49.036;7.690;2022-12-18T02:31:23;-9.10;99.90
16128;DHT22;8168;49.036;7.690;2022-12-18T02:34:02;-9.10;99.90
16128;DHT22;8168;49.036;7.690;2022-12-18T02:36:33;-9.10;99.90
16128;DHT22;8168;49.036;7.690;2022-12-18T02:39:09;-9.10;99.90
16128;DHT22;8168;49.036;7.690;2022-12-18T02:41:41;-9.20;99.90
16128;DHT22;8168;49.036;7.690;2022-12-18T02:44:13;-9.20;99.90
16128;DHT22;8168;49.036;7.690;2022-12-18T02:54:52;-9.20;99.90
16128;DHT22;8168;49.036;7.690;2022-12-18T02:57:42;-9.20;99.90
16128;DHT22;8168;49.036;7.690;2022-12-18T03:00:36;-9.20;99.90
16128;DHT22;8168;49.036;7.690;2022-12-18T03:03:13;-9.30;99.90
16128;DHT22;8168;49.036;7.690;2022-12-18T03:08:38;-9.30;99.90
16128;DHT22;8168;49.036;7.690;2022-12-18T03:11:11;-9.30;99.90
16128;DHT22;8168;49.036;7.690;2022-12-18T03:13:46;-9.30;99.90
16128;DHT22;8168;49.036;7.690;2022-12-18T03:16:25;-9.30;99.90
16128;DHT22;8168;49.036;7.690;2022-12-18T03:19:08;-9.30;99.90
16128;DHT22;8168;49.036;7.690;2022-12-18T03:21:46;-9.30;99.90
16128;DHT22;8168;49.036;7.690;2022-12-18T03:24:18;-9.30;99.90
16128;DHT22;8168;49.036;7.690;2022-12-18T03:26:53;-9.30;99.90
16128;DHT22;8168;49.036;7.690;2022-12-18T03:29:30;-9.30;99.90
16128;DHT22;8168;49.036;7.690;2022-12-18T03:32:07;-9.30;99.90
16128;DHT22;8168;49.036;7.690;2022-12-18T03:34:41;-9.40;99.90
16128;DHT22;8168;49.036;7.690;2022-12-18T03:42:34;-9.40;99.90
16128;DHT22;8168;49.036;7.690;2022-12-18T03:51:02;-9.40;99.90
16128;DHT22;8168;49.036;7.690;2022-12-18T03:56:15;-9.50;99.90
16128;DHT22;8168;49.036;7.690;2022-12-18T03:58:48;-9.50;99.90
16128;DHT22;8168;49.036;7.690;2022-12-18T04:01:22;-9.50;99.90
16128;DHT22;8168;49.036;7.690;2022-12-18T04:03:54;-9.50;99.90
16128;DHT22;8168;49.036;7.690;2022-12-18T04:08:57;-9.50;99.90
16128;DHT22;8168;49.036;7.690;2022-12-18T04:11:28;-9.50;99.90
16128;DHT22;8168;49.036;7.690;2022-12-18T04:54:15;-9.70;99.90
16128;DHT22;8168;49.036;7.690;2022-12-18T04:56:51;-9.70;99.90
16128;DHT22;8168;49.036;7.690;2022-12-18T05:01:52;-9.70;99.90
16128;DHT22;8168;49.036;7.690;2022-12-18T05:04:23;-9.70;99.90
16128;DHT22;8168;49.036;7.690;2022-12-18T05:06:53;-9.70;99.90
16128;DHT22;8168;49.036;7.690;2022-12-18T05:09:24;-9.80;99.90
16128;DHT22;8168;49.036;7.690;2022-12-18T05:11:55;-9.80;99.90
16128;DHT22;8168;49.036;7.690;2022-12-18T05:14:25;-9.80;99.90
16128;DHT22;8168;49.036;7.690;2022-12-18T05:16:57;-9.80;99.90
16128;DHT22;8168;49.036;7.690;2022-12-18T05:19:28;-9.80;99.90
16128;DHT22;8168;49.036;7.690;2022-12-18T05:21:59;-9.80;99.90
16128;DHT22;8168;49.036;7.690;2022-12-18T05:24:29;-9.80;99.90
16128;DHT22;8168;49.036;7.690;2022-12-18T05:27:00;-9.80;99.90
16128;DHT22;8168;49.036;7.690;2022-12-18T05:29:31;-9.80;99.90
16128;DHT22;8168;49.036;7.690;2022-12-18T05:34:32;-9.80;99.90
16128;DHT22;8168;49.036;7.690;2022-12-18T05:39:34;-9.80;99.90
16128;DHT22;8168;49.036;7.690;2022-12-18T05:42:05;-9.70;99.90
16128;DHT22;8168;49.036;7.690;2022-12-18T05:44:35;-9.70;99.90
16128;DHT22;8168;49.036;7.690;2022-12-18T05:47:06;-9.70;99.90
16128;DHT22;8168;49.036;7.690;2022-12-18T05:49:37;-9.70;99.90
16128;DHT22;8168;49.036;7.690;2022-12-18T05:52:08;-9.60;99.90
16128;DHT22;8168;49.036;7.690;2022-12-18T05:54:39;-9.60;99.90
16128;DHT22;8168;49.036;7.690;2022-12-18T05:57:09;-9.60;99.90
16128;DHT22;8168;49.036;7.690;2022-12-18T06:02:11;-9.50;99.90
16128;DHT22;8168;49.036;7.690;2022-12-18T06:04:42;-9.50;99.90
16128;DHT22;8168;49.036;7.690;2022-12-18T06:07:13;-9.50;99.90
16128;DHT22;8168;49.036;7.690;2022-12-18T06:09:43;-9.40;99.90
16128;DHT22;8168;49.036;7.690;2022-12-18T06:12:14;-9.40;99.90
16128;DHT22;8168;49.036;7.690;2022-12-18T06:22:17;-9.20;99.90
16128;DHT22;8168;49.036;7.690;2022-12-18T06:24:48;-9.20;99.90
16128;DHT22;8168;49.036;7.690;2022-12-18T06:27:18;-9.10;99.90
16128;DHT22;8168;49.036;7.690;2022-12-18T06:32:20;-9.10;99.90
16128;DHT22;8168;49.036;7.690;2022-12-18T06:34:51;-9.10;99.90
16128;DHT22;8168;49.036;7.690;2022-12-18T06:37:22;-9.10;99.90
16128;DHT22;8168;49.036;7.690;2022-12-18T06:42:28;-9.00;99.90
16128;DHT22;8168;49.036;7.690;2022-12-18T06:44:59;-9.00;99.90
16128;DHT22;8168;49.036;7.690;2022-12-18T06:52:32;-8.90;99.90
16128;DHT22;8168;49.036;7.690;2022-12-18T06:55:03;-8.90;99.90
16128;DHT22;8168;49.036;7.690;2022-12-18T06:57:34;-8.80;99.90
16128;DHT22;8168;49.036;7.690;2022-12-18T07:00:06;-8.80;99.90
16128;DHT22;8168;49.036;7.690;2022-12-18T07:02:37;-8.80;99.90
16128;DHT22;8168;49.036;7.690;2022-12-18T07:05:08;-8.80;99.90
16128;DHT22;8168;49.036;7.690;2022-12-18T07:10:10;-8.80;99.90
16128;DHT22;8168;49.036;7.690;2022-12-18T07:20:13;-8.70;99.90
16128;DHT22;8168;49.036;7.690;2022-12-18T07:22:44;-8.70;99.90
16128;DHT22;8168;49.036;7.690;2022-12-18T07:25:14;-8.70;99.90
16128;DHT22;8168;49.036;7.690;2022-12-18T07:32:47;-8.60;99.90
16128;DHT22;8168;49.036;7.690;2022-12-18T07:35:18;-8.60;99.90
16128;DHT22;8168;49.036;7.690;2022-12-18T07:37:49;-8.60;99.90
16128;DHT22;8168;49.036;7.690;2022-12-18T07:42:50;-8.60;99.90
16128;DHT22;8168;49.036;7.690;2022-12-18T07:45:21;-8.60;99.90
16128;DHT22;8168;49.036;7.690;2022-12-18T07:47:51;-8.50;99.90
16128;DHT22;8168;49.036;7.690;2022-12-18T07:50:22;-8.60;99.90
16128;DHT22;8168;49.036;7.690;2022-12-18T07:52:57;-8.50;99.90
16128;DHT22;8168;49.036;7.690;2022-12-18T07:55:28;-8.40;99.90
16128;DHT22;8168;49.036;7.690;2022-12-18T07:58:01;-8.40;99.90
16128;DHT22;8168;49.036;7.690;2022-12-18T08:00:32;-8.30;99.90
16128;DHT22;8168;49.036;7.690;2022-12-18T08:03:03;-8.30;99.90
16128;DHT22;8168;49.036;7.690;2022-12-18T08:05:34;-8.30;99.90
16128;DHT22;8168;49.036;7.690;2022-12-18T08:08:04;-8.30;99.90
16128;DHT22;8168;49.036;7.690;2022-12-18T08:10:35;-8.10;99.90
16128;DHT22;8168;49.036;7.690;2022-12-18T08:13:06;-8.20;99.90
16128;DHT22;8168;49.036;7.690;2022-12-18T08:15:36;-8.00;99.90
16128;DHT22;8168;49.036;7.690;2022-12-18T08:18:07;-8.00;99.90
16128;DHT22;8168;49.036;7.690;2022-12-18T08:20:37;-7.90;99.90
16128;DHT22;8168;49.036;7.690;2022-12-18T08:23:08;-7.90;99.90
16128;DHT22;8168;49.036;7.690;2022-12-18T08:25:38;-7.80;99.90
16128;DHT22;8168;49.036;7.690;2022-12-18T08:30:40;-7.70;99.90
16128;DHT22;8168;49.036;7.690;2022-12-18T08:33:11;-7.70;99.90
16128;DHT22;8168;49.036;7.690;2022-12-18T08:35:41;-7.60;99.90
16128;DHT22;8168;49.036;7.690;2022-12-18T08:38:12;-7.50;99.90
16128;DHT22;8168;49.036;7.690;2022-12-18T08:40:43;-7.40;99.90
16128;DHT22;8168;49.036;7.690;2022-12-18T08:43:13;-7.40;99.90
16128;DHT22;8168;49.036;7.690;2022-12-18T08:46:02;-7.30;99.90
16128;DHT22;8168;49.036;7.690;2022-12-18T08:48:33;-7.20;99.90
16128;DHT22;8168;49.036;7.690;2022-12-18T08:51:04;-7.10;99.90
16128;DHT22;8168;49.036;7.690;2022-12-18T08:53:35;-7.10;99.90
16128;DHT22;8168;49.036;7.690;2022-12-18T08:56:06;-7.00;99.90
16128;DHT22;8168;49.036;7.690;2022-12-18T08:58:36;-6.90;99.90
16128;DHT22;8168;49.036;7.690;2022-12-18T09:01:09;-6.80;99.90
16128;DHT22;8168;49.036;7.690;2022-12-18T09:03:40;-6.70;99.90
16128;DHT22;8168;49.036;7.690;2022-12-18T09:06:14;-6.60;99.90
16128;DHT22;8168;49.036;7.690;2022-12-18T09:08:45;-6.40;99.90
16128;DHT22;8168;49.036;7.690;2022-12-18T09:11:23;-6.30;99.90
16128;DHT22;8168;49.036;7.690;2022-12-18T09:13:54;-6.20;99.90
16128;DHT22;8168;49.036;7.690;2022-12-18T09:16:27;-6.20;99.90
16128;DHT22;8168;49.036;7.690;2022-12-18T09:18:59;-6.10;99.90
16128;DHT22;8168;49.036;7.690;2022-12-18T09:21:34;-6.10;99.90
16128;DHT22;8168;49.036;7.690;2022-12-18T09:24:05;-5.90;99.90
16128;DHT22;8168;49.036;7.690;2022-12-18T09:26:36;-5.80;99.90
16128;DHT22;8168;49.036;7.690;2022-12-18T09:29:07;-5.70;99.90
16128;DHT22;8168;49.036;7.690;2022-12-18T09:31:38;-5.70;99.90
16128;DHT22;8168;49.036;7.690;2022-12-18T09:34:09;-5.60;99.90
16128;DHT22;8168;49.036;7.690;2022-12-18T09:36:40;-5.60;99.90
16128;DHT22;8168;49.036;7.690;2022-12-18T09:39:10;-5.60;99.90
16128;DHT22;8168;49.036;7.690;2022-12-18T09:44:27;-5.50;99.90
16128;DHT22;8168;49.036;7.690;2022-12-18T09:47:10;-5.40;99.90
16128;DHT22;8168;49.036;7.690;2022-12-18T09:49:50;-5.40;99.90
16128;DHT22;8168;49.036;7.690;2022-12-18T09:52:49;-5.40;99.90
16128;DHT22;8168;49.036;7.690;2022-12-18T09:55:41;-5.20;99.90
16128;DHT22;8168;49.036;7.690;2022-12-18T09:58:49;-5.20;99.90
16128;DHT22;8168;49.036;7.690;2022-12-18T10:01:24;-5.10;99.90
16128;DHT22;8168;49.036;7.690;2022-12-18T10:03:55;-5.10;99.90
16128;DHT22;8168;49.036;7.690;2022-12-18T10:06:35;-5.00;99.90
16128;DHT22;8168;49.036;7.690;2022-12-18T10:19:58;-4.80;99.90
16128;DHT22;8168;49.036;7.690;2022-12-18T10:22:48;-4.80;99.90
16128;DHT22;8168;49.036;7.690;2022-12-18T10:28:21;-4.70;99.90
16128;DHT22;8168;49.036;7.690;2022-12-18T10:30:52;-4.70;99.90
16128;DHT22;8168;49.036;7.690;2022-12-18T10:33:24;-4.60;99.90
16128;DHT22;8168;49.036;7.690;2022-12-18T10:35:55;-4.50;99.90
16128;DHT22;8168;49.036;7.690;2022-12-18T10:38:30;-4.50;99.90
16128;DHT22;8168;49.036;7.690;2022-12-18T10:43:35;-4.50;99.90
16128;DHT22;8168;49.036;7.690;2022-12-18T10:51:25;-4.40;99.90
16128;DHT22;8168;49.036;7.690;2022-12-18T10:54:03;-4.40;99.90
16128;DHT22;8168;49.036;7.690;2022-12-18T10:56:35;-4.30;99.90
16128;DHT22;8168;49.036;7.690;2022-12-18T10:59:09;-4.30;99.90
16128;DHT22;8168;49.036;7.690;2022-12-18T11:04:24;-4.10;99.90
16128;DHT22;8168;49.036;7.690;2022-12-18T11:09:31;-4.10;99.90
16128;DHT22;8168;49.036;7.690;2022-12-18T11:12:08;-4.10;99.90
16128;DHT22;8168;49.036;7.690;2022-12-18T11:14:50;-4.10;99.90
16128;DHT22;8168;49.036;7.690;2022-12-18T11:17:35;-4.10;99.90
16128;DHT22;8168;49.036;7.690;2022-12-18T11:20:29;-4.10;99.90
16128;DHT22;8168;49.036;7.690;2022-12-18T11:23:03;-4.10;99.90
16128;DHT22;8168;49.036;7.690;2022-12-18T11:25:34;-4.10;99.90
16128;DHT22;8168;49.036;7.690;2022-12-18T11:28:25;-4.10;99.90
16128;DHT22;8168;49.036;7.690;2022-12-18T11:31:26;-4.00;99.90
16128;DHT22;8168;49.036;7.690;2022-12-18T11:37:00;-4.00;99.90
16128;DHT22;8168;49.036;7.690;2022-12-18T11:39:38;-4.00;99.90
16128;DHT22;8168;49.036;7.690;2022-12-18T11:44:57;-3.90;99.90
16128;DHT22;8168;49.036;7.690;2022-12-18T11:47:42;-3.90;99.90
16128;DHT22;8168;49.036;7.690;2022-12-18T11:50:59;-3.90;99.90
16128;DHT22;8168;49.036;7.690;2022-12-18T11:53:11;-3.80;99.90
16128;DHT22;8168;49.036;7.690;2022-12-18T12:04:46;-3.90;99.90
16128;DHT22;8168;49.036;7.690;2022-12-18T12:07:29;-3.80;99.90
16128;DHT22;8168;49.036;7.690;2022-12-18T12:21:39;-3.80;99.90
16128;DHT22;8168;49.036;7.690;2022-12-18T12:27:20;-3.70;99.90
16128;DHT22;8168;49.036;7.690;2022-12-18T12:35:55;-3.70;99.90
16128;DHT22;8168;49.036;7.690;2022-12-18T12:38:35;-3.60;99.90
16128;DHT22;8168;49.036;7.690;2022-12-18T12:41:11;-3.60;99.90
16128;DHT22;8168;49.036;7.690;2022-12-18T12:44:05;-3.60;99.90
16128;DHT22;8168;49.036;7.690;2022-12-18T12:46:39;-3.60;99.90
16128;DHT22;8168;49.036;7.690;2022-12-18T12:49:18;-3.60;99.90
16128;DHT22;8168;49.036;7.690;2022-12-18T12:52:07;-3.50;99.90
16128;DHT22;8168;49.036;7.690;2022-12-18T12:54:41;-3.50;99.90
16128;DHT22;8168;49.036;7.690;2022-12-18T12:57:34;-3.50;99.90
16128;DHT22;8168;49.036;7.690;2022-12-18T13:00:16;-3.50;99.90
16128;DHT22;8168;49.036;7.690;2022-12-18T13:02:58;-3.40;99.90
16128;DHT22;8168;49.036;7.690;2022-12-18T13:08:23;-3.40;99.90
16128;DHT22;8168;49.036;7.690;2022-12-18T13:10:56;-3.40;99.90
16128;DHT22;8168;49.036;7.690;2022-12-18T13:13:55;-3.50;99.90
16128;DHT22;8168;49.036;7.690;2022-12-18T13:16:26;-3.50;99.90
16128;DHT22;8168;49.036;7.690;2022-12-18T13:19:00;-3.50;99.90
16128;DHT22;8168;49.036;7.690;2022-12-18T13:21:32;-3.50;99.90
16128;DHT22;8168;49.036;7.690;2022-12-18T13:24:26;-3.50;99.90
16128;DHT22;8168;49.036;7.690;2022-12-18T13:26:57;-3.50;99.90
16128;DHT22;8168;49.036;7.690;2022-12-18T13:29:43;-3.50;99.90
16128;DHT22;8168;49.036;7.690;2022-12-18T13:32:25;-3.50;99.90
16128;DHT22;8168;49.036;7.690;2022-12-18T13:38:33;-3.40;99.90
16128;DHT22;8168;49.036;7.690;2022-12-18T13:41:26;-3.40;99.90
16128;DHT22;8168;49.036;7.690;2022-12-18T13:46:57;-3.30;99.90
16128;DHT22;8168;49.036;7.690;2022-12-18T13:49:42;-3.40;99.90
16128;DHT22;8168;49.036;7.690;2022-12-18T13:52:25;-3.40;99.90
16128;DHT22;8168;49.036;7.690;2022-12-18T13:55:00;-3.40;99.90
16128;DHT22;8168;49.036;7.690;2022-12-18T13:57:34;-3.40;99.90
16128;DHT22;8168;49.036;7.690;2022-12-18T14:02:51;-3.40;99.90
16128;DHT22;8168;49.036;7.690;2022-12-18T14:05:23;-3.40;99.90
16128;DHT22;8168;49.036;7.690;2022-12-18T14:07:54;-3.40;99.90
16128;DHT22;8168;49.036;7.690;2022-12-18T14:10:26;-3.40;99.90
16128;DHT22;8168;49.036;7.690;2022-12-18T14:12:57;-3.40;99.90
16128;DHT22;8168;49.036;7.690;2022-12-18T14:15:36;-3.50;99.90
16128;DHT22;8168;49.036;7.690;2022-12-18T14:20:50;-3.50;99.90
16128;DHT22;8168;49.036;7.690;2022-12-18T14:23:40;-3.50;99.90
16128;DHT22;8168;49.036;7.690;2022-12-18T14:26:26;-3.50;99.90
16128;DHT22;8168;49.036;7.690;2022-12-18T14:29:01;-3.50;99.90
16128;DHT22;8168;49.036;7.690;2022-12-18T14:32:05;-3.60;99.90
16128;DHT22;8168;49.036;7.690;2022-12-18T14:34:35;-3.60;99.90
16128;DHT22;8168;49.036;7.690;2022-12-18T14:37:10;-3.60;99.90
16128;DHT22;8168;49.036;7.690;2022-12-18T14:39:56;-3.60;99.90
16128;DHT22;8168;49.036;7.690;2022-12-18T14:42:28;-3.60;99.90
16128;DHT22;8168;49.036;7.690;2022-12-18T14:45:52;-3.60;99.90
16128;DHT22;8168;49.036;7.690;2022-12-18T14:48:36;-3.60;99.90
16128;DHT22;8168;49.036;7.690;2022-12-18T14:51:20;-3.50;99.90
16128;DHT22;8168;49.036;7.690;2022-12-18T14:54:05;-3.60;99.90
16128;DHT22;8168;49.036;7.690;2022-12-18T14:56:45;-3.60;99.90
16128;DHT22;8168;49.036;7.690;2022-12-18T14:59:23;-3.60;99.90
16128;DHT22;8168;49.036;7.690;2022-12-18T15:05:00;-3.50;99.90
16128;DHT22;8168;49.036;7.690;2022-12-18T15:07:48;-3.50;99.90
16128;DHT22;8168;49.036;7.690;2022-12-18T15:10:25;-3.50;99.90
16128;DHT22;8168;49.036;7.690;2022-12-18T15:23:21;-3.40;99.90
16128;DHT22;8168;49.036;7.690;2022-12-18T15:26:07;-3.40;99.90
16128;DHT22;8168;49.036;7.690;2022-12-18T15:28:50;-3.40;99.90
16128;DHT22;8168;49.036;7.690;2022-12-18T15:31:32;-3.40;99.90
16128;DHT22;8168;49.036;7.690;2022-12-18T15:36:38;-3.30;99.90
16128;DHT22;8168;49.036;7.690;2022-12-18T15:39:13;-3.30;99.90
16128;DHT22;8168;49.036;7.690;2022-12-18T15:41:43;-3.30;99.90
16128;DHT22;8168;49.036;7.690;2022-12-18T15:44:34;-3.30;99.90
16128;DHT22;8168;49.036;7.690;2022-12-18T15:47:10;-3.30;99.90
16128;DHT22;8168;49.036;7.690;2022-12-18T15:49:42;-3.30;99.90
16128;DHT22;8168;49.036;7.690;2022-12-18T15:52:13;-3.30;99.90
16128;DHT22;8168;49.036;7.690;2022-12-18T15:54:44;-3.30;99.90
16128;DHT22;8168;49.036;7.690;2022-12-18T15:57:33;-3.30;99.90
16128;DHT22;8168;49.036;7.690;2022-12-18T16:00:04;-3.30;99.90
16128;DHT22;8168;49.036;7.690;2022-12-18T16:02:35;-3.40;99.90
16128;DHT22;8168;49.036;7.690;2022-12-18T16:05:14;-3.30;99.90
16128;DHT22;8168;49.036;7.690;2022-12-18T16:07:45;-3.30;99.90
16128;DHT22;8168;49.036;7.690;2022-12-18T16:10:16;-3.30;99.90
16128;DHT22;8168;49.036;7.690;2022-12-18T16:12:47;-3.30;99.90
16128;DHT22;8168;49.036;7.690;2022-12-18T16:15:18;-3.30;99.90
16128;DHT22;8168;49.036;7.690;2022-12-18T16:17:49;-3.30;99.90
16128;DHT22;8168;49.036;7.690;2022-12-18T16:20:22;-3.30;99.90
16128;DHT22;8168;49.036;7.690;2022-12-18T16:22:52;-3.40;99.90
16128;DHT22;8168;49.036;7.690;2022-12-18T16:25:26;-3.40;99.90
16128;DHT22;8168;49.036;7.690;2022-12-18T16:27:57;-3.40;99.90
16128;DHT22;8168;49.036;7.690;2022-12-18T16:30:30;-3.40;99.90
16128;DHT22;8168;49.036;7.690;2022-12-18T16:33:00;-3.40;99.90
16128;DHT22;8168;49.036;7.690;2022-12-18T16:35:31;-3.50;99.90
16128;DHT22;8168;49.036;7.690;2022-12-18T16:38:03;-3.40;99.90
16128;DHT22;8168;49.036;7.690;2022-12-18T16:40:33;-3.50;99.90
16128;DHT22;8168;49.036;7.690;2022-12-18T16:43:24;-3.50;99.90
16128;DHT22;8168;49.036;7.690;2022-12-18T16:45:54;-3.50;99.90
16128;DHT22;8168;49.036;7.690;2022-12-18T16:48:27;-3.60;99.90
16128;DHT22;8168;49.036;7.690;2022-12-18T16:51:02;-3.60;99.90
16128;DHT22;8168;49.036;7.690;2022-12-18T16:53:33;-3.50;99.90
16128;DHT22;8168;49.036;7.690;2022-12-18T16:56:04;-3.60;99.90
16128;DHT22;8168;49.036;7.690;2022-12-18T16:58:34;-3.60;99.90
16128;DHT22;8168;49.036;7.690;2022-12-18T17:01:10;-3.60;99.90
16128;DHT22;8168;49.036;7.690;2022-12-18T17:03:41;-3.70;99.90
16128;DHT22;8168;49.036;7.690;2022-12-18T17:06:11;-3.70;99.90
16128;DHT22;8168;49.036;7.690;2022-12-18T17:08:42;-3.80;99.90
16128;DHT22;8168;49.036;7.690;2022-12-18T17:11:12;-3.70;99.90
16128;DHT22;8168;49.036;7.690;2022-12-18T17:13:43;-3.80;99.90
16128;DHT22;8168;49.036;7.690;2022-12-18T17:16:14;-3.80;99.90
16128;DHT22;8168;49.036;7.690;2022-12-18T17:18:45;-3.80;99.90
16128;DHT22;8168;49.036;7.690;2022-12-18T17:21:16;-3.70;99.90
16128;DHT22;8168;49.036;7.690;2022-12-18T17:23:47;-3.70;99.90
16128;DHT22;8168;49.036;7.690;2022-12-18T17:26:17;-3.80;99.90
16128;DHT22;8168;49.036;7.690;2022-12-18T17:28:48;-3.70;99.90
16128;DHT22;8168;49.036;7.690;2022-12-18T17:31:21;-3.70;99.90
16128;DHT22;8168;49.036;7.690;2022-12-18T17:33:52;-3.70;99.90
16128;DHT22;8168;49.036;7.690;2022-12-18T17:36:26;-3.70;99.90
16128;DHT22;8168;49.036;7.690;2022-12-18T17:39:03;-3.70;99.90
16128;DHT22;8168;49.036;7.690;2022-12-18T17:41:34;-3.70;99.90
16128;DHT22;8168;49.036;7.690;2022-12-18T17:44:05;-3.70;99.90
16128;DHT22;8168;49.036;7.690;2022-12-18T17:46:36;-3.60;99.90
16128;DHT22;8168;49.036;7.690;2022-12-18T17:49:06;-3.60;99.90
16128;DHT22;8168;49.036;7.690;2022-12-18T17:51:37;-3.60;99.90
16128;DHT22;8168;49.036;7.690;2022-12-18T17:54:08;-3.60;99.90
16128;DHT22;8168;49.036;7.690;2022-12-18T17:56:39;-3.60;99.90
16128;DHT22;8168;49.036;7.690;2022-12-18T17:59:10;-3.60;99.90
16128;DHT22;8168;49.036;7.690;2022-12-18T18:01:41;-3.50;99.90
16128;DHT22;8168;49.036;7.690;2022-12-18T18:04:12;-3.50;99.90
16128;DHT22;8168;49.036;7.690;2022-12-18T18:06:43;-3.50;99.90
16128;DHT22;8168;49.036;7.690;2022-12-18T18:09:13;-3.50;99.90
16128;DHT22;8168;49.036;7.690;2022-12-18T18:11:44;-3.50;99.90
16128;DHT22;8168;49.036;7.690;2022-12-18T18:14:33;-3.50;99.90
16128;DHT22;8168;49.036;7.690;2022-12-18T18:17:04;-3.50;99.90
16128;DHT22;8168;49.036;7.690;2022-12-18T18:19:35;-3.50;99.90
16128;DHT22;8168;49.036;7.690;2022-12-18T18:22:05;-3.40;99.90
16128;DHT22;8168;49.036;7.690;2022-12-18T18:24:36;-3.40;99.90
16128;DHT22;8168;49.036;7.690;2022-12-18T18:27:07;-3.40;99.90
16128;DHT22;8168;49.036;7.690;2022-12-18T18:29:37;-3.40;99.90
16128;DHT22;8168;49.036;7.690;2022-12-18T18:32:09;-3.40;99.90
16128;DHT22;8168;49.036;7.690;2022-12-18T18:34:39;-3.40;99.90
16128;DHT22;8168;49.036;7.690;2022-12-18T18:37:10;-3.40;99.90
16128;DHT22;8168;49.036;7.690;2022-12-18T18:39:41;-3.30;99.90
16128;DHT22;8168;49.036;7.690;2022-12-18T18:42:12;-3.30;99.90
16128;DHT22;8168;49.036;7.690;2022-12-18T18:44:42;-3.30;99.90
16128;DHT22;8168;49.036;7.690;2022-12-18T18:47:13;-3.30;99.90
16128;DHT22;8168;49.036;7.690;2022-12-18T18:49:43;-3.30;99.90
16128;DHT22;8168;49.036;7.690;2022-12-18T18:52:14;-3.30;99.90
16128;DHT22;8168;49.036;7.690;2022-12-18T18:54:46;-3.20;99.90
16128;DHT22;8168;49.036;7.690;2022-12-18T18:57:17;-3.20;99.90
16128;DHT22;8168;49.036;7.690;2022-12-18T18:59:48;-3.20;99.90
16128;DHT22;8168;49.036;7.690;2022-12-18T19:02:19;-3.20;99.90
16128;DHT22;8168;49.036;7.690;2022-12-18T19:04:49;-3.20;99.90
16128;DHT22;8168;49.036;7.690;2022-12-18T19:07:20;-3.20;99.90
16128;DHT22;8168;49.036;7.690;2022-12-18T19:09:50;-3.20;99.90
16128;DHT22;8168;49.036;7.690;2022-12-18T19:12:26;-3.20;99.90
16128;DHT22;8168;49.036;7.690;2022-12-18T19:15:15;-3.10;99.90
16128;DHT22;8168;49.036;7.690;2022-12-18T19:17:45;-3.00;99.90
16128;DHT22;8168;49.036;7.690;2022-12-18T19:20:16;-3.20;99.90
16128;DHT22;8168;49.036;7.690;2022-12-18T19:22:47;-3.20;99.90
16128;DHT22;8168;49.036;7.690;2022-12-18T19:25:18;-3.10;99.90
16128;DHT22;8168;49.036;7.690;2022-12-18T19:27:48;-3.20;99.90
16128;DHT22;8168;49.036;7.690;2022-12-18T19:30:19;-3.10;99.90
16128;DHT22;8168;49.036;7.690;2022-12-18T19:32:50;-3.10;99.90
16128;DHT22;8168;49.036;7.690;2022-12-18T19:35:20;-3.10;99.90
16128;DHT22;8168;49.036;7.690;2022-12-18T19:37:51;-3.10;99.90
16128;DHT22;8168;49.036;7.690;2022-12-18T19:40:21;-3.10;99.90
16128;DHT22;8168;49.036;7.690;2022-12-18T19:42:52;-3.10;99.90
16128;DHT22;8168;49.036;7.690;2022-12-18T19:45:22;-3.10;99.90
16128;DHT22;8168;49.036;7.690;2022-12-18T19:47:53;-3.10;99.90
16128;DHT22;8168;49.036;7.690;2022-12-18T19:50:24;-3.10;99.90
16128;DHT22;8168;49.036;7.690;2022-12-18T19:52:57;-3.00;99.90
16128;DHT22;8168;49.036;7.690;2022-12-18T19:55:28;-3.50;99.90
16128;DHT22;8168;49.036;7.690;2022-12-18T19:57:59;-3.00;99.90
16128;DHT22;8168;49.036;7.690;2022-12-18T20:00:30;-3.00;99.90
16128;DHT22;8168;49.036;7.690;2022-12-18T20:03:01;-3.00;99.90
16128;DHT22;8168;49.036;7.690;2022-12-18T20:05:32;-3.00;99.90
16128;DHT22;8168;49.036;7.690;2022-12-18T20:08:03;-2.90;99.90
16128;DHT22;8168;49.036;7.690;2022-12-18T20:10:33;-3.00;99.90
16128;DHT22;8168;49.036;7.690;2022-12-18T20:13:04;-2.90;99.90
16128;DHT22;8168;49.036;7.690;2022-12-18T20:15:35;-2.90;99.90
16128;DHT22;8168;49.036;7.690;2022-12-18T20:18:08;-2.90;99.90
16128;DHT22;8168;49.036;7.690;2022-12-18T20:20:39;-2.90;99.90
16128;DHT22;8168;49.036;7.690;2022-12-18T20:23:10;-2.80;99.90
16128;DHT22;8168;49.036;7.690;2022-12-18T20:25:40;-2.90;99.90
16128;DHT22;8168;49.036;7.690;2022-12-18T20:28:11;-2.80;99.90
16128;DHT22;8168;49.036;7.690;2022-12-18T20:30:41;-2.80;99.90
16128;DHT22;8168;49.036;7.690;2022-12-18T20:33:12;-2.80;99.90
16128;DHT22;8168;49.036;7.690;2022-12-18T20:35:43;-2.80;99.90
16128;DHT22;8168;49.036;7.690;2022-12-18T20:38:14;-2.80;99.90
16128;DHT22;8168;49.036;7.690;2022-12-18T20:40:44;-2.80;99.90
16128;DHT22;8168;49.036;7.690;2022-12-18T20:43:15;-2.80;99.90
16128;DHT22;8168;49.036;7.690;2022-12-18T20:45:45;-2.80;99.90
16128;DHT22;8168;49.036;7.690;2022-12-18T20:48:16;-2.80;99.90
16128;DHT22;8168;49.036;7.690;2022-12-18T20:50:57;-2.80;99.90
16128;DHT22;8168;49.036;7.690;2022-12-18T20:53:27;-2.80;99.90
16128;DHT22;8168;49.036;7.690;2022-12-18T20:55:58;-2.80;99.90
16128;DHT22;8168;49.036;7.690;2022-12-18T20:58:28;-2.80;99.90
16128;DHT22;8168;49.036;7.690;2022-12-18T21:01:24;-2.70;99.90
16128;DHT22;8168;49.036;7.690;2022-12-18T21:03:55;-2.70;99.90
16128;DHT22;8168;49.036;7.690;2022-12-18T21:06:26;-2.70;99.90
16128;DHT22;8168;49.036;7.690;2022-12-18T21:08:56;-2.70;99.90
16128;DHT22;8168;49.036;7.690;2022-12-18T21:11:30;-2.70;99.90
16128;DHT22;8168;49.036;7.690;2022-12-18T21:14:25;-2.70;99.90
16128;DHT22;8168;49.036;7.690;2022-12-18T21:16:57;-2.70;99.90
16128;DHT22;8168;49.036;7.690;2022-12-18T21:19:30;-2.70;99.90
16128;DHT22;8168;49.036;7.690;2022-12-18T21:22:00;-2.70;99.90